Time,TemperatureF,DewpointF,PressureIn,WindDirection,WindDirectionDegrees,WindSpeedMPH,WindSpeedGustMPH,Humidity,HourlyPrecipIn,Conditions,Clouds,dailyrainin,SolarRadiationWatts/m^2,SoftwareType,DateUTC
2013-03-14 00:01:00,65.6,27.8,29.97,ENE,64,0.0,1.0,24,0.00,,,0.00,0,LWC V2.00 B727,2013-03-14 07:01:00,
2013-03-14 00:06:00,65.4,27.7,29.97,ENE,64,0.0,1.0,24,0.00,,,0.00,0,LWC V2.00 B727,2013-03-14 07:06:00,
2013-03-14 00:11:00,64.3,28.7,29.97,ENE,61,2.0,4.0,26,0.00,,,0.00,0,LWC V2.00 B727,2013-03-14 07:11:00,
2013-03-14 00:16:00,65.0,27.3,29.97,ENE,61,0.0,2.0,24,0.00,,,0.00,0,LWC V2.00 B727,2013-03-14 07:16:00,
2013-03-14 00:21:00,65.2,27.5,29.97,ENE,61,2.0,2.0,24,0.00,,,0.00,0,LWC V2.00 B727,2013-03-14 07:21:00,
2013-03-14 00:26:00,64.8,28.2,29.97,ENE,61,0.0,0.0,25,0.00,,,0.00,0,LWC V2.00 B727,2013-03-14 07:26:00,
2013-03-14 00:31:00,64.7,27.1,29.97,ENE,61,0.0,1.0,24,0.00,,,0.00,0,LWC V2.00 B727,2013-03-14 07:31:00,
2013-03-14 00:36:00,64.7,28.1,29.97,ENE,67,2.0,4.0,25,0.00,,,0.00,0,LWC V2.00 B727,2013-03-14 07:36:00,
2013-03-14 00:41:00,63.6,28.1,29.97,ENE,68,3.0,4.0,26,0.00,,,0.00,0,LWC V2.00 B727,2013-03-14 07:41:00,
2013-03-14 00:46:00,62.9,29.3,29.97,ENE,69,0.0,3.0,28,0.00,,,0.00,0,LWC V2.00 B727,2013-03-14 07:46:00,
2013-03-14 00:51:00,62.8,29.2,29.97,ENE,69,2.0,3.0,28,0.00,,,0.00,0,LWC V2.00 B727,2013-03-14 07:51:00,
2013-03-14 00:56:00,62.5,29.0,29.97,ENE,69,3.0,3.0,28,0.00,,,0.00,0,LWC V2.00 B727,2013-03-14 07:56:00,
2013-03-14 01:01:00,62.4,28.9,29.97,ENE,69,0.0,3.0,28,0.00,,,0.00,0,LWC V2.00 B727,2013-03-14 08:01:00,
2013-03-14 01:06:00,62.0,29.4,29.97,ENE,69,0.0,0.0,29,0.00,,,0.00,0,LWC V2.00 B727,2013-03-14 08:06:00,
2013-03-14 01:11:00,61.8,29.2,29.97,ENE,69,0.0,1.0,29,0.00,,,0.00,0,LWC V2.00 B727,2013-03-14 08:11:00,
2013-03-14 01:16:00,62.9,28.4,29.97,ENE,69,0.0,1.0,27,0.00,,,0.00,0,LWC V2.00 B727,2013-03-14 08:16:00,
2013-03-14 01:21:00,63.6,28.1,29.97,ENE,69,0.0,1.0,26,0.00,,,0.00,0,LWC V2.00 B727,2013-03-14 08:21:00,
2013-03-14 01:26:00,64.1,28.5,29.97,ENE,69,1.0,2.0,26,0.00,,,0.00,0,LWC V2.00 B727,2013-03-14 08:26:00,
2013-03-14 01:31:00,63.2,28.7,29.97,ENE,69,0.0,2.0,27,0.00,,,0.00,0,LWC V2.00 B727,2013-03-14 08:31:00,
2013-03-14 01:36:00,63.0,28.5,29.97,ENE,69,2.0,4.0,27,0.00,,,0.00,0,LWC V2.00 B727,2013-03-14 08:36:00,
2013-03-14 01:41:00,62.9,28.4,29.97,ENE,69,2.0,3.0,27,0.00,,,0.00,0,LWC V2.00 B727,2013-03-14 08:41:00,
2013-03-14 01:46:00,62.9,28.4,29.97,ENE,69,2.0,3.0,27,0.00,,,0.00,0,LWC V2.00 B727,2013-03-14 08:46:00,
2013-03-14 01:51:00,62.6,29.0,29.97,ENE,69,0.0,2.0,28,0.00,,,0.00,0,LWC V2.00 B727,2013-03-14 08:51:00,
2013-03-14 01:56:00,62.3,28.8,29.96,ENE,69,0.0,0.0,28,0.00,,,0.00,0,LWC V2.00 B727,2013-03-14 08:56:00,
2013-03-14 02:01:00,61.3,28.8,29.97,ENE,69,0.0,0.0,29,0.00,,,0.00,0,LWC V2.00 B727,2013-03-14 09:01:00,
2013-03-14 02:06:00,59.5,29.6,29.96,ENE,69,0.0,0.0,32,0.00,,,0.00,0,LWC V2.00 B727,2013-03-14 09:06:00,
2013-03-14 02:11:00,58.1,29.9,29.96,ENE,69,0.0,1.0,34,0.00,,,0.00,0,LWC V2.00 B727,2013-03-14 09:11:00,
2013-03-14 02:16:00,57.9,29.7,29.96,ENE,69,0.0,0.0,34,0.00,,,0.00,0,LWC V2.00 B727,2013-03-14 09:16:00,
2013-03-14 02:21:00,59.0,29.2,29.96,ENE,69,0.0,0.0,32,0.00,,,0.00,0,LWC V2.00 B727,2013-03-14 09:21:00,
2013-03-14 02:26:00,59.8,29.1,29.96,ENE,69,0.0,0.0,31,0.00,,,0.00,0,LWC V2.00 B727,2013-03-14 09:26:00,
2013-03-14 02:31:00,59.2,29.4,29.96,ENE,69,0.0,0.0,32,0.00,,,0.00,0,LWC V2.00 B727,2013-03-14 09:31:00,
2013-03-14 02:36:00,58.6,30.3,29.96,ENE,69,0.0,0.0,34,0.00,,,0.00,0,LWC V2.00 B727,2013-03-14 09:36:00,
2013-03-14 02:41:00,57.8,29.6,29.96,ENE,69,0.0,0.0,34,0.00,,,0.00,0,LWC V2.00 B727,2013-03-14 09:41:00,
2013-03-14 02:46:00,58.9,28.3,29.95,ENE,69,0.0,0.0,31,0.00,,,0.00,0,LWC V2.00 B727,2013-03-14 09:46:00,
2013-03-14 02:51:00,59.1,28.5,29.95,ENE,69,0.0,0.0,31,0.00,,,0.00,0,LWC V2.00 B727,2013-03-14 09:51:00,
2013-03-14 02:56:00,58.6,28.8,29.95,ENE,69,0.0,0.0,32,0.00,,,0.00,0,LWC V2.00 B727,2013-03-14 09:56:00,
2013-03-14 03:01:00,57.8,29.6,29.95,ENE,69,0.0,0.0,34,0.00,,,0.00,0,LWC V2.00 B727,2013-03-14 10:01:00,
2013-03-14 03:06:00,57.0,28.9,29.95,ENE,69,0.0,0.0,34,0.00,,,0.00,0,LWC V2.00 B727,2013-03-14 10:06:00,
2013-03-14 03:11:00,58.0,28.3,29.95,ENE,69,0.0,0.0,32,0.00,,,0.00,0,LWC V2.00 B727,2013-03-14 10:11:00,
2013-03-14 03:16:00,60.0,28.5,29.95,ENE,69,1.0,3.0,30,0.00,,,0.00,0,LWC V2.00 B727,2013-03-14 10:16:00,
2013-03-14 03:21:00,61.1,28.6,29.95,ENE,69,0.0,2.0,29,0.00,,,0.00,0,LWC V2.00 B727,2013-03-14 10:21:00,
2013-03-14 03:26:00,61.2,27.8,29.95,ENE,69,0.0,0.0,28,0.00,,,0.00,0,LWC V2.00 B727,2013-03-14 10:26:00,
2013-03-14 03:31:00,60.7,28.3,29.95,ENE,69,0.0,0.0,29,0.00,,,0.00,0,LWC V2.00 B727,2013-03-14 10:31:00,
2013-03-14 03:36:00,61.4,28.0,29.95,ENE,69,0.0,1.0,28,0.00,,,0.00,0,LWC V2.00 B727,2013-03-14 10:36:00,
2013-03-14 03:41:00,62.5,27.2,29.95,ENE,69,0.0,0.0,26,0.00,,,0.00,0,LWC V2.00 B727,2013-03-14 10:41:00,
2013-03-14 03:46:00,62.7,27.3,29.95,ENE,69,0.0,1.0,26,0.00,,,0.00,0,LWC V2.00 B727,2013-03-14 10:46:00,
2013-03-14 03:51:00,62.9,27.5,29.95,ENE,69,0.0,1.0,26,0.00,,,0.00,0,LWC V2.00 B727,2013-03-14 10:51:00,
2013-03-14 03:56:00,61.2,28.7,29.95,ENE,69,0.0,1.0,29,0.00,,,0.00,0,LWC V2.00 B727,2013-03-14 10:56:00,
2013-03-14 04:01:00,59.7,29.0,29.95,ENE,69,0.0,0.0,31,0.00,,,0.00,0,LWC V2.00 B727,2013-03-14 11:01:00,
2013-03-14 04:06:00,57.5,29.4,29.95,ENE,69,0.0,0.0,34,0.00,,,0.00,0,LWC V2.00 B727,2013-03-14 11:06:00,
2013-03-14 04:11:00,56.3,29.7,29.95,ENE,69,0.0,0.0,36,0.00,,,0.00,0,LWC V2.00 B727,2013-03-14 11:11:00,
2013-03-14 04:16:00,56.2,28.9,29.95,ENE,69,0.0,0.0,35,0.00,,,0.00,0,LWC V2.00 B727,2013-03-14 11:16:00,
2013-03-14 04:20:00,57.8,28.9,29.95,ENE,69,0.0,0.0,33,0.00,,,0.00,0,LWC V2.00 B727,2013-03-14 11:20:00,
2013-03-14 04:25:00,58.0,29.1,29.95,ENE,69,0.0,0.0,33,0.00,,,0.00,0,LWC V2.00 B727,2013-03-14 11:25:00,
2013-03-14 04:30:00,58.7,28.1,29.96,ENE,69,0.0,0.0,31,0.00,,,0.00,0,LWC V2.00 B727,2013-03-14 11:30:00,
2013-03-14 04:35:00,59.2,27.8,29.96,ENE,69,0.0,0.0,30,0.00,,,0.00,0,LWC V2.00 B727,2013-03-14 11:35:00,
2013-03-14 04:40:00,59.2,27.8,29.96,ENE,69,0.0,0.0,30,0.00,,,0.00,0,LWC V2.00 B727,2013-03-14 11:40:00,
2013-03-14 04:45:00,58.3,28.6,29.96,ENE,69,0.0,0.0,32,0.00,,,0.00,0,LWC V2.00 B727,2013-03-14 11:45:00,
2013-03-14 04:50:00,58.1,28.4,29.96,ENE,69,0.0,3.0,32,0.00,,,0.00,0,LWC V2.00 B727,2013-03-14 11:50:00,
2013-03-14 04:55:00,58.2,29.2,29.96,ENE,69,0.0,2.0,33,0.00,,,0.00,0,LWC V2.00 B727,2013-03-14 11:55:00,
2013-03-14 05:00:00,58.5,28.7,29.96,ENE,69,1.0,3.0,32,0.00,,,0.00,0,LWC V2.00 B727,2013-03-14 12:00:00,
2013-03-14 05:05:00,58.6,28.8,29.96,ENE,69,0.0,2.0,32,0.00,,,0.00,0,LWC V2.00 B727,2013-03-14 12:05:00,
2013-03-14 05:10:00,58.0,29.8,29.96,ENE,69,0.0,0.0,34,0.00,,,0.00,0,LWC V2.00 B727,2013-03-14 12:10:00,
2013-03-14 05:15:00,57.1,29.0,29.96,ENE,69,0.0,0.0,34,0.00,,,0.00,0,LWC V2.00 B727,2013-03-14 12:15:00,
2013-03-14 05:20:00,57.3,29.2,29.96,ENE,69,0.0,0.0,34,0.00,,,0.00,0,LWC V2.00 B727,2013-03-14 12:20:00,
2013-03-14 05:25:00,57.7,28.8,29.96,ENE,69,0.0,1.0,33,0.00,,,0.00,0,LWC V2.00 B727,2013-03-14 12:25:00,
2013-03-14 05:30:00,58.5,28.7,29.96,ENE,69,0.0,3.0,32,0.00,,,0.00,0,LWC V2.00 B727,2013-03-14 12:30:00,
2013-03-14 05:35:00,58.2,29.2,29.96,ENE,69,0.0,1.0,33,0.00,,,0.00,0,LWC V2.00 B727,2013-03-14 12:35:00,
2013-03-14 05:40:00,58.0,29.8,29.96,ENE,69,0.0,0.0,34,0.00,,,0.00,0,LWC V2.00 B727,2013-03-14 12:40:00,
2013-03-14 05:45:00,57.3,29.9,29.97,ENE,69,0.0,0.0,35,0.00,,,0.00,0,LWC V2.00 B727,2013-03-14 12:45:00,
2013-03-14 05:50:00,57.0,28.9,29.97,ENE,69,0.0,0.0,34,0.00,,,0.00,0,LWC V2.00 B727,2013-03-14 12:50:00,
2013-03-14 05:55:00,57.2,29.1,29.97,ENE,69,0.0,0.0,34,0.00,,,0.00,0,LWC V2.00 B727,2013-03-14 12:55:00,
2013-03-14 06:00:00,56.2,28.9,29.97,ENE,69,0.0,0.0,35,0.00,,,0.00,0,LWC V2.00 B727,2013-03-14 13:00:00,
2013-03-14 06:05:00,55.3,29.5,29.97,ENE,69,0.0,0.0,37,0.00,,,0.00,0,LWC V2.00 B727,2013-03-14 13:05:00,
2013-03-14 06:10:00,55.1,29.3,29.97,ENE,69,0.0,0.0,37,0.00,,,0.00,0,LWC V2.00 B727,2013-03-14 13:10:00,
2013-03-14 06:15:00,56.7,27.9,29.98,ENE,69,0.0,0.0,33,0.00,,,0.00,0,LWC V2.00 B727,2013-03-14 13:15:00,
2013-03-14 06:20:00,58.4,28.7,29.98,ENE,69,0.0,0.0,32,0.00,,,0.00,0,LWC V2.00 B727,2013-03-14 13:20:00,
2013-03-14 06:25:00,57.3,29.2,29.98,ENE,69,0.0,1.0,34,0.00,,,0.00,0,LWC V2.00 B727,2013-03-14 13:25:00,
2013-03-14 06:30:00,55.1,30.0,29.98,ENE,69,0.0,0.0,38,0.00,,,0.00,0,LWC V2.00 B727,2013-03-14 13:30:00,
2013-03-14 06:35:00,54.4,29.3,29.98,ENE,69,0.0,0.0,38,0.00,,,0.00,5,LWC V2.00 B727,2013-03-14 13:35:00,
2013-03-14 06:40:00,55.4,28.9,29.98,ENE,69,0.0,0.0,36,0.00,,,0.00,7,LWC V2.00 B727,2013-03-14 13:40:00,
2013-03-14 06:45:00,56.9,28.1,29.98,ENE,69,0.0,0.0,33,0.00,,,0.00,11,LWC V2.00 B727,2013-03-14 13:45:00,
2013-03-14 06:50:00,56.6,28.6,29.98,ENE,69,0.0,0.0,34,0.00,,,0.00,12,LWC V2.00 B727,2013-03-14 13:50:00,
2013-03-14 06:55:00,56.4,28.4,29.99,ENE,69,0.0,0.0,34,0.00,,,0.00,14,LWC V2.00 B727,2013-03-14 13:55:00,
2013-03-14 07:00:00,57.8,28.9,29.99,ENE,69,0.0,0.0,33,0.00,,,0.00,16,LWC V2.00 B727,2013-03-14 14:00:00,
2013-03-14 07:05:00,57.4,29.3,29.99,ENE,69,0.0,1.0,34,0.00,,,0.00,18,LWC V2.00 B727,2013-03-14 14:05:00,
2013-03-14 07:10:00,57.2,29.1,29.99,ENE,69,3.0,3.0,34,0.00,,,0.00,19,LWC V2.00 B727,2013-03-14 14:10:00,
2013-03-14 07:15:00,57.9,29.7,29.99,ENE,69,1.0,3.0,34,0.00,,,0.00,21,LWC V2.00 B727,2013-03-14 14:15:00,
2013-03-14 07:20:00,58.3,29.3,30.00,ENE,69,0.0,0.0,33,0.00,,,0.00,23,LWC V2.00 B727,2013-03-14 14:20:00,
2013-03-14 07:25:00,58.3,29.3,30.00,ENE,69,0.0,0.0,33,0.00,,,0.00,130,LWC V2.00 B727,2013-03-14 14:25:00,
2013-03-14 07:30:00,58.5,30.2,30.00,ENE,69,0.0,0.0,34,0.00,,,0.00,158,LWC V2.00 B727,2013-03-14 14:30:00,
2013-03-14 07:35:00,58.7,30.4,30.00,ENE,69,0.0,0.0,34,0.00,,,0.00,176,LWC V2.00 B727,2013-03-14 14:35:00,
2013-03-14 07:40:00,58.7,31.1,30.00,ENE,69,0.0,0.0,35,0.00,,,0.00,195,LWC V2.00 B727,2013-03-14 14:40:00,
2013-03-14 07:45:00,59.3,31.7,30.00,ENE,69,0.0,0.0,35,0.00,,,0.00,213,LWC V2.00 B727,2013-03-14 14:45:00,
2013-03-14 07:50:00,57.5,32.1,30.01,ENE,69,0.0,0.0,38,0.00,,,0.00,232,LWC V2.00 B727,2013-03-14 14:50:00,
2013-03-14 07:55:00,57.3,32.6,30.01,ENE,69,0.0,0.0,39,0.00,,,0.00,251,LWC V2.00 B727,2013-03-14 14:55:00,
2013-03-14 08:00:00,58.7,31.8,30.01,ENE,69,0.0,0.0,36,0.00,,,0.00,272,LWC V2.00 B727,2013-03-14 15:00:00,
2013-03-14 08:05:00,59.9,32.2,30.01,ENE,69,0.0,0.0,35,0.00,,,0.00,288,LWC V2.00 B727,2013-03-14 15:05:00,
2013-03-14 08:10:00,59.8,32.8,30.01,ENE,69,0.0,1.0,36,0.00,,,0.00,306,LWC V2.00 B727,2013-03-14 15:10:00,
2013-03-14 08:15:00,59.8,32.8,30.01,ENE,69,0.0,0.0,36,0.00,,,0.00,325,LWC V2.00 B727,2013-03-14 15:15:00,
2013-03-14 08:20:00,60.9,33.1,30.01,ENE,69,0.0,1.0,35,0.00,,,0.00,346,LWC V2.00 B727,2013-03-14 15:20:00,
2013-03-14 08:25:00,62.7,33.2,30.01,ENE,69,0.0,0.0,33,0.00,,,0.00,364,LWC V2.00 B727,2013-03-14 15:25:00,
2013-03-14 08:30:00,63.5,31.5,30.01,ENE,69,0.0,0.0,30,0.00,,,0.00,385,LWC V2.00 B727,2013-03-14 15:30:00,
2013-03-14 08:35:00,64.8,30.9,30.01,ENE,69,0.0,0.0,28,0.00,,,0.00,403,LWC V2.00 B727,2013-03-14 15:35:00,
2013-03-14 08:40:00,65.1,32.1,30.01,ENE,69,0.0,1.0,29,0.00,,,0.00,418,LWC V2.00 B727,2013-03-14 15:40:00,
2013-03-14 08:45:00,66.1,31.1,30.01,ENE,69,0.0,0.0,27,0.00,,,0.00,436,LWC V2.00 B727,2013-03-14 15:45:00,
2013-03-14 08:50:00,67.2,33.0,30.01,ENE,69,0.0,1.0,28,0.00,,,0.00,455,LWC V2.00 B727,2013-03-14 15:50:00,
2013-03-14 08:55:00,66.5,32.4,30.01,ENE,69,0.0,0.0,28,0.00,,,0.00,473,LWC V2.00 B727,2013-03-14 15:55:00,
2013-03-14 09:00:00,66.8,30.8,30.01,ENE,69,0.0,0.0,26,0.00,,,0.00,492,LWC V2.00 B727,2013-03-14 16:00:00,
2013-03-14 09:05:00,67.6,32.4,30.02,ENE,69,0.0,1.0,27,0.00,,,0.00,512,LWC V2.00 B727,2013-03-14 16:05:00,
2013-03-14 09:10:00,68.0,31.8,30.01,ENE,69,0.0,0.0,26,0.00,,,0.00,524,LWC V2.00 B727,2013-03-14 16:10:00,
2013-03-14 09:15:00,68.6,33.3,30.01,East,92,0.0,2.0,27,0.00,,,0.00,543,LWC V2.00 B727,2013-03-14 16:15:00,
2013-03-14 09:20:00,69.4,34.0,30.01,South,173,0.0,2.0,27,0.00,,,0.00,559,LWC V2.00 B727,2013-03-14 16:20:00,
2013-03-14 09:25:00,69.7,33.3,30.01,South,173,0.0,0.0,26,0.00,,,0.00,571,LWC V2.00 B727,2013-03-14 16:25:00,
2013-03-14 09:30:00,70.4,32.9,30.01,South,173,0.0,1.0,25,0.00,,,0.00,589,LWC V2.00 B727,2013-03-14 16:30:00,
2013-03-14 09:35:00,70.7,35.1,30.01,South,173,0.0,1.0,27,0.00,,,0.00,603,LWC V2.00 B727,2013-03-14 16:35:00,
2013-03-14 09:40:00,71.5,34.8,30.01,South,173,0.0,1.0,26,0.00,,,0.00,621,LWC V2.00 B727,2013-03-14 16:40:00,
2013-03-14 09:45:00,72.5,35.7,30.01,South,173,0.0,1.0,26,0.00,,,0.00,631,LWC V2.00 B727,2013-03-14 16:45:00,
2013-03-14 09:50:00,72.7,35.8,30.01,South,173,0.0,0.0,26,0.00,,,0.00,647,LWC V2.00 B727,2013-03-14 16:50:00,
2013-03-14 09:55:00,73.4,35.4,30.01,South,173,0.0,1.0,25,0.00,,,0.00,661,LWC V2.00 B727,2013-03-14 16:55:00,
2013-03-14 10:00:00,74.1,33.9,30.01,South,173,0.0,0.0,23,0.00,,,0.00,677,LWC V2.00 B727,2013-03-14 17:00:00,
2013-03-14 10:05:00,74.1,33.9,30.01,South,173,0.0,1.0,23,0.00,,,0.00,687,LWC V2.00 B727,2013-03-14 17:05:00,
2013-03-14 10:10:00,75.3,34.9,30.01,South,173,0.0,1.0,23,0.00,,,0.00,701,LWC V2.00 B727,2013-03-14 17:10:00,
2013-03-14 10:15:00,75.6,34.1,30.01,South,173,0.0,1.0,22,0.00,,,0.00,715,LWC V2.00 B727,2013-03-14 17:15:00,
2013-03-14 10:20:00,75.9,31.9,30.01,South,191,0.0,1.0,20,0.00,,,0.00,724,LWC V2.00 B727,2013-03-14 17:20:00,
2013-03-14 10:25:00,78.0,32.4,30.01,South,191,1.0,1.0,19,0.00,,,0.00,737,LWC V2.00 B727,2013-03-14 17:25:00,
2013-03-14 10:30:00,78.4,28.5,30.01,South,191,0.0,1.0,16,0.00,,,0.00,749,LWC V2.00 B727,2013-03-14 17:30:00,
2013-03-14 10:35:00,78.3,31.3,30.01,South,169,0.0,1.0,18,0.00,,,0.00,761,LWC V2.00 B727,2013-03-14 17:35:00,
2013-03-14 10:40:00,79.0,30.5,30.01,South,170,0.0,0.0,17,0.00,,,0.00,772,LWC V2.00 B727,2013-03-14 17:40:00,
2013-03-14 10:45:00,78.1,29.7,30.01,West,267,0.0,1.0,17,0.00,,,0.00,780,LWC V2.00 B727,2013-03-14 17:45:00,
2013-03-14 10:50:00,79.2,30.6,30.01,West,268,0.0,1.0,17,0.00,,,0.00,789,LWC V2.00 B727,2013-03-14 17:50:00,
2013-03-14 10:55:00,79.5,29.4,30.01,SW,227,0.0,0.0,16,0.00,,,0.00,800,LWC V2.00 B727,2013-03-14 17:55:00,
2013-03-14 11:00:00,79.0,31.9,30.01,SW,227,0.0,0.0,18,0.00,,,0.00,809,LWC V2.00 B727,2013-03-14 18:00:00,
2013-03-14 11:05:00,80.2,29.9,30.01,SW,226,4.0,4.0,16,0.00,,,0.00,817,LWC V2.00 B727,2013-03-14 18:05:00,
2013-03-14 11:10:00,80.4,30.1,30.00,SE,141,0.0,2.0,16,0.00,,,0.00,826,LWC V2.00 B727,2013-03-14 18:10:00,
2013-03-14 11:15:00,80.0,29.8,30.00,WNW,283,0.0,1.0,16,0.00,,,0.00,833,LWC V2.00 B727,2013-03-14 18:15:00,
2013-03-14 11:20:00,80.8,28.8,30.00,South,174,0.0,4.0,15,0.00,,,0.00,840,LWC V2.00 B727,2013-03-14 18:20:00,
2013-03-14 11:25:00,80.6,30.2,30.00,SW,222,2.0,2.0,16,0.00,,,0.00,849,LWC V2.00 B727,2013-03-14 18:25:00,
2013-03-14 11:30:00,80.5,28.6,30.00,SW,221,0.0,1.0,15,0.00,,,0.00,853,LWC V2.00 B727,2013-03-14 18:30:00,
2013-03-14 11:35:00,81.0,32.1,30.00,SSW,198,0.0,2.0,17,0.00,,,0.00,858,LWC V2.00 B727,2013-03-14 18:35:00,
2013-03-14 11:40:00,81.8,31.2,30.00,SW,222,0.0,1.0,16,0.00,,,0.00,865,LWC V2.00 B727,2013-03-14 18:40:00,
2013-03-14 11:45:00,82.0,34.3,29.99,SSW,210,1.0,5.0,18,0.00,,,0.00,870,LWC V2.00 B727,2013-03-14 18:45:00,
2013-03-14 11:50:00,82.7,33.4,29.99,WSW,240,3.0,4.0,17,0.00,,,0.00,870,LWC V2.00 B727,2013-03-14 18:50:00,
2013-03-14 11:55:00,82.4,31.7,29.99,NW,323,0.0,3.0,16,0.00,,,0.00,874,LWC V2.00 B727,2013-03-14 18:55:00,
2013-03-14 12:00:00,82.9,35.0,29.98,SE,146,4.0,5.0,18,0.00,,,0.00,879,LWC V2.00 B727,2013-03-14 19:00:00,
2013-03-14 12:05:00,83.3,33.9,29.98,SSW,213,0.0,6.0,17,0.00,,,0.00,884,LWC V2.00 B727,2013-03-14 19:05:00,
2013-03-14 12:10:00,83.6,31.0,29.98,SE,145,0.0,5.0,15,0.00,,,0.00,884,LWC V2.00 B727,2013-03-14 19:10:00,
2013-03-14 12:15:00,83.6,31.0,29.98,SSW,200,5.0,5.0,15,0.00,,,0.00,886,LWC V2.00 B727,2013-03-14 19:15:00,
2013-03-14 12:20:00,84.5,30.1,29.97,SSW,211,0.0,6.0,14,0.00,,,0.00,889,LWC V2.00 B727,2013-03-14 19:20:00,
2013-03-14 12:25:00,84.3,28.1,29.97,SW,233,0.0,5.0,13,0.00,,,0.00,888,LWC V2.00 B727,2013-03-14 19:25:00,
2013-03-14 12:30:00,84.4,28.2,29.97,WSW,241,2.0,6.0,13,0.00,,,0.00,889,LWC V2.00 B727,2013-03-14 19:30:00,
2013-03-14 12:35:00,84.8,24.4,29.97,WSW,242,0.0,1.0,11,0.00,,,0.00,891,LWC V2.00 B727,2013-03-14 19:35:00,
2013-03-14 12:40:00,85.4,28.9,29.97,South,185,1.0,4.0,13,0.00,,,0.00,888,LWC V2.00 B727,2013-03-14 19:40:00,
2013-03-14 12:45:00,85.6,25.1,29.96,WSW,257,1.0,6.0,11,0.00,,,0.00,889,LWC V2.00 B727,2013-03-14 19:45:00,
2013-03-14 12:50:00,85.4,24.9,29.96,WSW,252,2.0,6.0,11,0.00,,,0.00,889,LWC V2.00 B727,2013-03-14 19:50:00,
2013-03-14 12:55:00,85.3,22.6,29.96,SW,223,4.0,6.0,10,0.00,,,0.00,888,LWC V2.00 B727,2013-03-14 19:55:00,
2013-03-14 13:00:00,85.5,22.7,29.95,SW,226,0.0,3.0,10,0.00,,,0.00,884,LWC V2.00 B727,2013-03-14 20:00:00,
2013-03-14 13:05:00,85.2,22.5,29.95,SW,226,0.0,5.0,10,0.00,,,0.00,882,LWC V2.00 B727,2013-03-14 20:05:00,
2013-03-14 13:10:00,84.6,22.0,29.95,WSW,246,0.0,5.0,10,0.00,,,0.00,879,LWC V2.00 B727,2013-03-14 20:10:00,
2013-03-14 13:15:00,85.8,25.2,29.95,WSW,254,0.0,3.0,11,0.00,,,0.00,875,LWC V2.00 B727,2013-03-14 20:15:00,
2013-03-14 13:20:00,85.8,25.2,29.94,SW,232,4.0,7.0,11,0.00,,,0.00,870,LWC V2.00 B727,2013-03-14 20:20:00,
2013-03-14 13:25:00,86.5,27.9,29.94,NW,307,0.0,1.0,12,0.00,,,0.00,865,LWC V2.00 B727,2013-03-14 20:25:00,
2013-03-14 13:30:00,86.4,25.7,29.94,WSW,239,2.0,6.0,11,0.00,,,0.00,858,LWC V2.00 B727,2013-03-14 20:30:00,
2013-03-14 13:35:00,87.4,26.4,29.93,WNW,300,0.0,3.0,11,0.00,,,0.00,853,LWC V2.00 B727,2013-03-14 20:35:00,
2013-03-14 13:40:00,86.8,23.7,29.93,NE,54,3.0,6.0,10,0.00,,,0.00,846,LWC V2.00 B727,2013-03-14 20:40:00,
2013-03-14 13:45:00,86.3,23.3,29.93,NNE,21,0.0,6.0,10,0.00,,,0.00,838,LWC V2.00 B727,2013-03-14 20:45:00,
2013-03-14 13:50:00,86.8,26.0,29.93,NNE,15,0.0,7.0,11,0.00,,,0.00,833,LWC V2.00 B727,2013-03-14 20:50:00,
2013-03-14 13:55:00,87.7,21.9,29.92,West,280,0.0,5.0,9,0.00,,,0.00,826,LWC V2.00 B727,2013-03-14 20:55:00,
2013-03-14 14:00:00,88.3,19.5,29.92,NNW,329,2.0,3.0,8,0.00,,,0.00,817,LWC V2.00 B727,2013-03-14 21:00:00,
2013-03-14 14:05:00,86.5,21.0,29.92,NNW,336,3.0,3.0,9,0.00,,,0.00,810,LWC V2.00 B727,2013-03-14 21:05:00,
2013-03-14 14:10:00,87.0,23.8,29.92,NNW,330,3.0,3.0,10,0.00,,,0.00,803,LWC V2.00 B727,2013-03-14 21:10:00,
2013-03-14 14:15:00,86.3,23.3,29.92,SSW,207,1.0,4.0,10,0.00,,,0.00,795,LWC V2.00 B727,2013-03-14 21:15:00,
2013-03-14 14:20:00,86.7,21.1,29.92,SW,236,0.0,5.0,9,0.00,,,0.00,784,LWC V2.00 B727,2013-03-14 21:20:00,
2013-03-14 14:25:00,87.1,23.9,29.91,SSE,159,0.0,3.0,10,0.00,,,0.00,772,LWC V2.00 B727,2013-03-14 21:25:00,
2013-03-14 14:30:00,88.0,22.1,29.91,SW,220,4.0,7.0,9,0.00,,,0.00,765,LWC V2.00 B727,2013-03-14 21:30:00,
2013-03-14 14:35:00,87.2,21.5,29.91,SW,220,2.0,4.0,9,0.00,,,0.00,752,LWC V2.00 B727,2013-03-14 21:35:00,
2013-03-14 14:40:00,86.8,23.7,29.91,SSE,151,0.0,4.0,10,0.00,,,0.00,742,LWC V2.00 B727,2013-03-14 21:40:00,
2013-03-14 14:45:00,87.5,24.2,29.91,SW,220,2.0,5.0,10,0.00,,,0.00,729,LWC V2.00 B727,2013-03-14 21:45:00,
2013-03-14 14:50:00,87.9,22.0,29.91,SSW,207,5.0,8.0,9,0.00,,,0.00,719,LWC V2.00 B727,2013-03-14 21:50:00,
2013-03-14 14:55:00,87.3,24.1,29.91,SW,215,3.0,5.0,10,0.00,,,0.00,703,LWC V2.00 B727,2013-03-14 21:55:00,
2013-03-14 15:00:00,87.4,21.6,29.90,SW,214,3.0,7.0,9,0.00,,,0.00,694,LWC V2.00 B727,2013-03-14 22:00:00,
2013-03-14 15:05:00,86.9,23.8,29.90,SSW,209,5.0,5.0,10,0.00,,,0.00,679,LWC V2.00 B727,2013-03-14 22:05:00,
2013-03-14 15:10:00,86.6,21.1,29.90,SSE,165,1.0,4.0,9,0.00,,,0.00,663,LWC V2.00 B727,2013-03-14 22:10:00,
2013-03-14 15:15:00,87.3,24.1,29.90,SSE,165,0.0,0.0,10,0.00,,,0.00,650,LWC V2.00 B727,2013-03-14 22:15:00,
2013-03-14 15:20:00,88.2,22.2,29.90,West,272,0.0,3.0,9,0.00,,,0.00,638,LWC V2.00 B727,2013-03-14 22:20:00,
2013-03-14 15:25:00,88.6,25.1,29.90,West,272,0.0,1.0,10,0.00,,,0.00,619,LWC V2.00 B727,2013-03-14 22:25:00,
2013-03-14 15:30:00,88.2,22.2,29.90,West,261,0.0,2.0,9,0.00,,,0.00,605,LWC V2.00 B727,2013-03-14 22:30:00,
2013-03-14 15:35:00,87.7,21.9,29.90,WNW,293,0.0,1.0,9,0.00,,,0.00,592,LWC V2.00 B727,2013-03-14 22:35:00,
2013-03-14 15:40:00,87.6,19.0,29.89,WNW,284,0.0,3.0,8,0.00,,,0.00,575,LWC V2.00 B727,2013-03-14 22:40:00,
2013-03-14 15:45:00,88.2,24.8,29.89,West,280,0.0,3.0,10,0.00,,,0.00,561,LWC V2.00 B727,2013-03-14 22:45:00,
2013-03-14 15:50:00,88.4,22.4,29.89,NW,316,0.0,4.0,9,0.00,,,0.00,541,LWC V2.00 B727,2013-03-14 22:50:00,
2013-03-14 15:55:00,87.7,24.4,29.89,NNW,348,2.0,6.0,10,0.00,,,0.00,524,LWC V2.00 B727,2013-03-14 22:55:00,
2013-03-14 16:00:00,87.7,21.9,29.89,NNW,340,4.0,4.0,9,0.00,,,0.00,508,LWC V2.00 B727,2013-03-14 23:00:00,
2013-03-14 16:05:00,87.8,21.9,29.89,NNW,348,6.0,6.0,9,0.00,,,0.00,490,LWC V2.00 B727,2013-03-14 23:05:00,
2013-03-14 16:10:00,87.3,18.8,29.89,NNW,345,0.0,1.0,8,0.00,,,0.00,476,LWC V2.00 B727,2013-03-14 23:10:00,
2013-03-14 16:15:00,87.4,21.6,29.89,NNW,346,0.0,2.0,9,0.00,,,0.00,459,LWC V2.00 B727,2013-03-14 23:15:00,
2013-03-14 16:20:00,87.8,21.9,29.89,WNW,295,1.0,2.0,9,0.00,,,0.00,441,LWC V2.00 B727,2013-03-14 23:20:00,
2013-03-14 16:25:00,87.4,21.6,29.89,ENE,76,3.0,3.0,9,0.00,,,0.00,422,LWC V2.00 B727,2013-03-14 23:25:00,
2013-03-14 16:30:00,87.1,21.4,29.89,NNW,340,0.0,1.0,9,0.00,,,0.00,403,LWC V2.00 B727,2013-03-14 23:30:00,
2013-03-14 16:35:00,86.2,20.8,29.89,NE,56,1.0,1.0,9,0.00,,,0.00,383,LWC V2.00 B727,2013-03-14 23:35:00,
2013-03-14 16:40:00,86.6,23.5,29.88,NE,52,0.0,1.0,10,0.00,,,0.00,364,LWC V2.00 B727,2013-03-14 23:40:00,
2013-03-14 16:45:00,86.9,21.3,29.89,NE,44,0.0,3.0,9,0.00,,,0.00,350,LWC V2.00 B727,2013-03-14 23:45:00,
2013-03-14 16:50:00,87.5,24.2,29.88,West,267,0.0,4.0,10,0.00,,,0.00,330,LWC V2.00 B727,2013-03-14 23:50:00,
2013-03-14 16:55:00,87.1,21.4,29.88,SW,220,5.0,6.0,9,0.00,,,0.00,311,LWC V2.00 B727,2013-03-14 23:55:00,
2013-03-14 17:00:00,86.9,21.3,29.88,WSW,247,1.0,5.0,9,0.00,,,0.00,292,LWC V2.00 B727,2013-03-15 00:00:00,
2013-03-14 17:05:00,86.6,23.5,29.88,SW,220,0.0,3.0,10,0.00,,,0.00,269,LWC V2.00 B727,2013-03-15 00:05:00,
2013-03-14 17:10:00,86.3,20.8,29.88,SW,220,0.0,3.0,9,0.00,,,0.00,248,LWC V2.00 B727,2013-03-15 00:10:00,
2013-03-14 17:15:00,86.3,23.3,29.88,SW,220,0.0,1.0,10,0.00,,,0.00,225,LWC V2.00 B727,2013-03-15 00:15:00,
2013-03-14 17:20:00,86.4,23.4,29.88,SW,220,0.0,0.0,10,0.00,,,0.00,204,LWC V2.00 B727,2013-03-15 00:20:00,
2013-03-14 17:25:00,86.5,21.0,29.88,SW,227,1.0,3.0,9,0.00,,,0.00,181,LWC V2.00 B727,2013-03-15 00:25:00,
2013-03-14 17:30:00,86.3,23.3,29.88,NW,313,0.0,3.0,10,0.00,,,0.00,160,LWC V2.00 B727,2013-03-15 00:30:00,
2013-03-14 17:35:00,85.7,25.1,29.88,WSW,243,0.0,0.0,11,0.00,,,0.00,135,LWC V2.00 B727,2013-03-15 00:35:00,
2013-03-14 17:40:00,85.2,24.8,29.88,WSW,247,0.0,1.0,11,0.00,,,0.00,114,LWC V2.00 B727,2013-03-15 00:40:00,
2013-03-14 17:45:00,85.2,22.5,29.88,WSW,249,0.0,0.0,10,0.00,,,0.00,95,LWC V2.00 B727,2013-03-15 00:45:00,
2013-03-14 17:50:00,85.4,20.2,29.88,WSW,249,0.0,1.0,9,0.00,,,0.00,77,LWC V2.00 B727,2013-03-15 00:50:00,
2013-03-14 17:55:00,85.5,22.7,29.88,WSW,249,0.0,0.0,10,0.00,,,0.00,60,LWC V2.00 B727,2013-03-15 00:55:00,
2013-03-14 18:00:00,85.1,19.9,29.88,WSW,249,0.0,0.0,9,0.00,,,0.00,44,LWC V2.00 B727,2013-03-15 01:00:00,
2013-03-14 18:05:00,84.5,22.0,29.88,WSW,249,0.0,0.0,10,0.00,,,0.00,32,LWC V2.00 B727,2013-03-15 01:05:00,
2013-03-14 18:10:00,84.4,24.1,29.88,WSW,249,0.0,0.0,11,0.00,,,0.00,21,LWC V2.00 B727,2013-03-15 01:10:00,
2013-03-14 18:15:00,84.1,23.9,29.88,WSW,249,0.0,1.0,11,0.00,,,0.00,16,LWC V2.00 B727,2013-03-15 01:15:00,
2013-03-14 18:20:00,82.9,27.0,29.88,WNW,302,0.0,5.0,13,0.00,,,0.00,12,LWC V2.00 B727,2013-03-15 01:20:00,
2013-03-14 18:25:00,82.0,28.1,29.88,NW,309,2.0,2.0,14,0.00,,,0.00,9,LWC V2.00 B727,2013-03-15 01:25:00,
2013-03-14 18:30:00,81.2,29.1,29.88,NW,304,0.0,3.0,15,0.00,,,0.00,7,LWC V2.00 B727,2013-03-15 01:30:00,
2013-03-14 18:35:00,80.3,30.0,29.88,NW,304,0.0,1.0,16,0.00,,,0.00,0,LWC V2.00 B727,2013-03-15 01:35:00,
2013-03-14 18:40:00,78.9,30.4,29.88,NW,304,0.0,0.0,17,0.00,,,0.00,0,LWC V2.00 B727,2013-03-15 01:40:00,
2013-03-14 18:45:00,77.8,30.9,29.88,NW,304,0.0,1.0,18,0.00,,,0.00,0,LWC V2.00 B727,2013-03-15 01:45:00,
2013-03-14 18:50:00,77.2,31.7,29.89,NW,304,0.0,0.0,19,0.00,,,0.00,0,LWC V2.00 B727,2013-03-15 01:50:00,
2013-03-14 18:55:00,76.6,31.2,29.89,NW,304,0.0,0.0,19,0.00,,,0.00,0,LWC V2.00 B727,2013-03-15 01:55:00,
2013-03-14 19:00:00,76.4,31.1,29.89,NW,304,0.0,2.0,19,0.00,,,0.00,0,LWC V2.00 B727,2013-03-15 02:00:00,
2013-03-14 19:05:00,75.7,31.8,29.89,NW,304,0.0,0.0,20,0.00,,,0.00,0,LWC V2.00 B727,2013-03-15 02:05:00,
2013-03-14 19:10:00,75.0,31.2,29.89,NNW,329,1.0,2.0,20,0.00,,,0.00,0,LWC V2.00 B727,2013-03-15 02:10:00,
2013-03-14 19:15:00,74.9,32.3,29.89,NNW,329,0.0,2.0,21,0.00,,,0.00,0,LWC V2.00 B727,2013-03-15 02:15:00,
2013-03-14 19:20:00,75.1,31.3,29.89,ENE,77,1.0,4.0,20,0.00,,,0.00,0,LWC V2.00 B727,2013-03-15 02:20:00,
2013-03-14 19:25:00,75.0,32.4,29.90,ENE,74,3.0,4.0,21,0.00,,,0.00,0,LWC V2.00 B727,2013-03-15 02:25:00,
2013-03-14 19:30:00,74.8,32.2,29.90,ENE,74,1.0,4.0,21,0.00,,,0.00,0,LWC V2.00 B727,2013-03-15 02:30:00,
2013-03-14 19:35:00,74.4,31.9,29.90,ENE,74,0.0,1.0,21,0.00,,,0.00,0,LWC V2.00 B727,2013-03-15 02:35:00,
2013-03-14 19:40:00,74.1,32.8,29.90,NE,54,3.0,4.0,22,0.00,,,0.00,0,LWC V2.00 B727,2013-03-15 02:40:00,
2013-03-14 19:45:00,73.4,33.3,29.90,ENE,65,3.0,4.0,23,0.00,,,0.00,0,LWC V2.00 B727,2013-03-15 02:45:00,
2013-03-14 19:50:00,72.8,32.8,29.90,ENE,63,3.0,5.0,23,0.00,,,0.00,0,LWC V2.00 B727,2013-03-15 02:50:00,
2013-03-14 19:55:00,72.3,33.5,29.90,ENE,63,4.0,5.0,24,0.00,,,0.00,0,LWC V2.00 B727,2013-03-15 02:55:00,
2013-03-14 20:00:00,71.8,33.1,29.90,ENE,63,4.0,5.0,24,0.00,,,0.00,0,LWC V2.00 B727,2013-03-15 03:00:00,
2013-03-14 20:05:00,71.6,32.9,29.90,ENE,61,3.0,5.0,24,0.00,,,0.00,0,LWC V2.00 B727,2013-03-15 03:05:00,
2013-03-14 20:10:00,71.6,32.9,29.90,ENE,61,3.0,5.0,24,0.00,,,0.00,0,LWC V2.00 B727,2013-03-15 03:10:00,
2013-03-14 20:15:00,71.7,33.0,29.90,ENE,68,4.0,7.0,24,0.00,,,0.00,0,LWC V2.00 B727,2013-03-15 03:15:00,
2013-03-14 20:20:00,71.5,32.8,29.90,ENE,61,2.0,4.0,24,0.00,,,0.00,0,LWC V2.00 B727,2013-03-15 03:20:00,
2013-03-14 20:25:00,71.2,32.6,29.90,ENE,61,1.0,3.0,24,0.00,,,0.00,0,LWC V2.00 B727,2013-03-15 03:25:00,
2013-03-14 20:30:00,71.2,32.6,29.90,NE,38,1.0,5.0,24,0.00,,,0.00,0,LWC V2.00 B727,2013-03-15 03:30:00,
2013-03-14 20:35:00,71.2,32.6,29.90,NE,42,1.0,4.0,24,0.00,,,0.00,0,LWC V2.00 B727,2013-03-15 03:35:00,
2013-03-14 20:40:00,71.6,31.8,29.90,NE,54,3.0,4.0,23,0.00,,,0.00,0,LWC V2.00 B727,2013-03-15 03:40:00,
2013-03-14 20:45:00,71.6,31.8,29.90,ENE,66,0.0,3.0,23,0.00,,,0.00,0,LWC V2.00 B727,2013-03-15 03:45:00,
2013-03-14 20:50:00,71.3,31.6,29.90,ENE,67,2.0,4.0,23,0.00,,,0.00,0,LWC V2.00 B727,2013-03-15 03:50:00,
2013-03-14 20:55:00,70.7,32.1,29.91,ENE,67,3.0,3.0,24,0.00,,,0.00,0,LWC V2.00 B727,2013-03-15 03:55:00,
2013-03-14 21:00:00,70.6,32.0,29.91,ENE,67,0.0,2.0,24,0.00,,,0.00,0,LWC V2.00 B727,2013-03-15 04:00:00,
2013-03-14 21:01:00,70.6,32.0,29.91,ENE,67,1.0,3.0,24,0.00,,,0.00,0,LWC V2.00 B727,2013-03-15 04:01:00,
2013-03-14 21:06:00,70.7,31.1,29.91,ENE,68,3.0,3.0,23,0.00,,,0.00,0,LWC V2.00 B727,2013-03-15 04:06:00,
2013-03-14 21:11:00,70.8,31.2,29.91,ENE,66,0.0,2.0,23,0.00,,,0.00,0,LWC V2.00 B727,2013-03-15 04:11:00,
2013-03-14 21:16:00,70.8,31.2,29.91,ENE,66,2.0,4.0,23,0.00,,,0.00,0,LWC V2.00 B727,2013-03-15 04:16:00,
2013-03-14 21:21:00,70.2,31.7,29.91,ENE,66,0.0,1.0,24,0.00,,,0.00,0,LWC V2.00 B727,2013-03-15 04:21:00,
2013-03-14 21:26:00,68.8,31.5,29.91,ENE,66,0.0,0.0,25,0.00,,,0.00,0,LWC V2.00 B727,2013-03-15 04:26:00,
2013-03-14 21:31:00,68.2,32.0,29.91,ENE,66,0.0,1.0,26,0.00,,,0.00,0,LWC V2.00 B727,2013-03-15 04:31:00,
2013-03-14 21:36:00,68.6,31.4,29.91,ENE,66,2.0,2.0,25,0.00,,,0.00,0,LWC V2.00 B727,2013-03-15 04:36:00,
2013-03-14 21:41:00,69.1,30.8,29.91,ENE,66,0.0,1.0,24,0.00,,,0.00,0,LWC V2.00 B727,2013-03-15 04:41:00,
2013-03-14 21:46:00,69.7,30.2,29.91,ENE,66,0.0,1.0,23,0.00,,,0.00,0,LWC V2.00 B727,2013-03-15 04:46:00,
2013-03-14 21:51:00,69.6,30.2,29.91,ENE,66,0.0,1.0,23,0.00,,,0.00,0,LWC V2.00 B727,2013-03-15 04:51:00,
2013-03-14 21:56:00,70.1,29.5,29.91,ENE,66,0.0,1.0,22,0.00,,,0.00,0,LWC V2.00 B727,2013-03-15 04:56:00,
2013-03-14 22:01:00,70.4,29.7,29.91,ENE,66,1.0,1.0,22,0.00,,,0.00,0,LWC V2.00 B727,2013-03-15 05:01:00,
2013-03-14 22:06:00,69.8,30.3,29.91,ENE,66,0.0,4.0,23,0.00,,,0.00,0,LWC V2.00 B727,2013-03-15 05:06:00,
2013-03-14 22:11:00,69.2,29.8,29.92,ENE,66,2.0,4.0,23,0.00,,,0.00,0,LWC V2.00 B727,2013-03-15 05:11:00,
2013-03-14 22:16:00,69.2,29.8,29.91,ENE,66,0.0,0.0,23,0.00,,,0.00,0,LWC V2.00 B727,2013-03-15 05:16:00,
2013-03-14 22:21:00,67.8,31.7,29.92,ENE,66,0.0,0.0,26,0.00,,,0.00,0,LWC V2.00 B727,2013-03-15 05:21:00,
2013-03-14 22:26:00,65.6,31.6,29.92,ENE,66,0.0,0.0,28,0.00,,,0.00,0,LWC V2.00 B727,2013-03-15 05:26:00,
2013-03-14 22:31:00,65.3,31.4,29.92,ENE,66,0.0,0.0,28,0.00,,,0.00,0,LWC V2.00 B727,2013-03-15 05:31:00,
2013-03-14 22:36:00,65.0,31.1,29.92,ENE,66,0.0,0.0,28,0.00,,,0.00,0,LWC V2.00 B727,2013-03-15 05:36:00,
2013-03-14 22:41:00,65.7,29.9,29.92,ENE,66,0.0,0.0,26,0.00,,,0.00,0,LWC V2.00 B727,2013-03-15 05:41:00,
2013-03-14 22:46:00,65.6,29.8,29.92,ENE,66,0.0,1.0,26,0.00,,,0.00,0,LWC V2.00 B727,2013-03-15 05:46:00,
2013-03-14 22:51:00,65.8,30.0,29.92,ENE,66,0.0,1.0,26,0.00,,,0.00,0,LWC V2.00 B727,2013-03-15 05:51:00,
2013-03-14 22:56:00,65.1,30.3,29.92,ENE,66,0.0,0.0,27,0.00,,,0.00,0,LWC V2.00 B727,2013-03-15 05:56:00,
2013-03-14 23:01:00,65.2,29.5,29.92,ENE,66,0.0,0.0,26,0.00,,,0.00,0,LWC V2.00 B727,2013-03-15 06:01:00,
2013-03-14 23:06:00,66.3,27.4,29.92,ENE,66,0.0,1.0,23,0.00,,,0.00,0,LWC V2.00 B727,2013-03-15 06:06:00,
2013-03-14 23:11:00,67.7,27.5,29.92,ENE,66,0.0,0.0,22,0.00,,,0.00,0,LWC V2.00 B727,2013-03-15 06:11:00,
2013-03-14 23:16:00,67.6,27.4,29.92,ENE,66,0.0,1.0,22,0.00,,,0.00,0,LWC V2.00 B727,2013-03-15 06:16:00,
2013-03-14 23:21:00,65.5,28.7,29.92,ENE,66,0.0,1.0,25,0.00,,,0.00,0,LWC V2.00 B727,2013-03-15 06:21:00,
2013-03-14 23:26:00,65.5,27.8,29.92,ENE,66,2.0,2.0,24,0.00,,,0.00,0,LWC V2.00 B727,2013-03-15 06:26:00,
2013-03-14 23:31:00,66.4,27.5,29.92,ENE,66,3.0,3.0,23,0.00,,,0.00,0,LWC V2.00 B727,2013-03-15 06:31:00,
2013-03-14 23:36:00,67.4,27.2,29.92,ENE,66,0.0,3.0,22,0.00,,,0.00,0,LWC V2.00 B727,2013-03-15 06:36:00,
2013-03-14 23:41:00,67.9,26.5,29.92,ENE,66,0.0,1.0,21,0.00,,,0.00,0,LWC V2.00 B727,2013-03-15 06:41:00,
2013-03-14 23:46:00,67.8,26.4,29.92,ENE,66,1.0,2.0,21,0.00,,,0.00,0,LWC V2.00 B727,2013-03-15 06:46:00,
2013-03-14 23:51:00,68.1,26.7,29.92,ENE,66,1.0,1.0,21,0.00,,,0.00,0,LWC V2.00 B727,2013-03-15 06:51:00,
2013-03-14 23:56:00,67.9,26.5,29.92,ENE,66,0.0,0.0,21,0.00,,,0.00,0,LWC V2.00 B727,2013-03-15 06:56:00,